DLONG RJFO-RJAA
Flight info
| Callsign | DLONG |
|---|---|
| Flight time | N/A |
| Altitude | 37000 |
| Route | FUSHA DONAR BOTAN KABIL KRE V37 PADOC Y43 ISEBI Y81 RUTAS |
| Aircraft | A320/M-SDE3FGHIRWY/LB1 |
Departure
| Time | 2026-04-27 18:50 |
|---|---|
| Airport | Oita Airport (RJFO) |
Arrival
| Time | N/A |
|---|---|
| Airport | Narita International Airport (RJAA) |
| Time | Latitude | Longitude | Altitude | Speed | Heading |
|---|---|---|---|---|---|
| 2026-04-27 18:41 | 33.47640 | 131.73339 | 27 ft | 0 kts | 270° |
| 2026-04-27 18:41 | 33.47640 | 131.73349 | 27 ft | 4 kts | 270° |
| 2026-04-27 18:41 | 33.47640 | 131.73381 | 27 ft | 4 kts | 268° |
| 2026-04-27 18:42 | 33.47641 | 131.73414 | 26 ft | 4 kts | 266° |
| 2026-04-27 18:42 | 33.47642 | 131.73435 | 28 ft | 4 kts | 264° |
| 2026-04-27 18:42 | 33.47647 | 131.73477 | 28 ft | 4 kts | 254° |
| 2026-04-27 18:42 | 33.47658 | 131.73505 | 29 ft | 4 kts | 209° |
| 2026-04-27 18:43 | 33.47668 | 131.73509 | 30 ft | 1 kts | 180° |
| 2026-04-27 18:43 | 33.47669 | 131.73509 | 30 ft | 0 kts | 180° |
| 2026-04-27 18:45 | 33.47668 | 131.73509 | 30 ft | 0 kts | 180° |
| 2026-04-27 18:45 | 33.47648 | 131.73509 | 29 ft | 4 kts | 181° |
| 2026-04-27 18:45 | 33.47600 | 131.73508 | 25 ft | 10 kts | 181° |
| 2026-04-27 18:45 | 33.47503 | 131.73507 | 23 ft | 17 kts | 180° |
| 2026-04-27 18:46 | 33.47379 | 131.73506 | 23 ft | 19 kts | 181° |
| 2026-04-27 18:46 | 33.47240 | 131.73504 | 21 ft | 21 kts | 181° |
| 2026-04-27 18:46 | 33.47093 | 131.73504 | 20 ft | 22 kts | 180° |
| 2026-04-27 18:46 | 33.46940 | 131.73506 | 22 ft | 22 kts | 182° |
| 2026-04-27 18:47 | 33.46790 | 131.73503 | 25 ft | 20 kts | 179° |
| 2026-04-27 18:47 | 33.46668 | 131.73500 | 27 ft | 15 kts | 181° |
| 2026-04-27 18:47 | 33.46621 | 131.73521 | 27 ft | 5 kts | 124° |
| 2026-04-27 18:47 | 33.46611 | 131.73546 | 27 ft | 2 kts | 102° |
| 2026-04-27 18:48 | 33.46607 | 131.73585 | 27 ft | 8 kts | 92° |
| 2026-04-27 18:48 | 33.46608 | 131.73654 | 26 ft | 8 kts | 83° |
| 2026-04-27 18:48 | 33.46659 | 131.73695 | 26 ft | 11 kts | 17° |
| 2026-04-27 18:48 | 33.46722 | 131.73698 | 28 ft | 0 kts | 0° |
| 2026-04-27 18:49 | 33.46723 | 131.73698 | 28 ft | 0 kts | 0° |
| 2026-04-27 18:49 | 33.46731 | 131.73698 | 28 ft | 8 kts | 0° |
| 2026-04-27 18:49 | 33.46968 | 131.73700 | 23 ft | 70 kts | 0° |
| 2026-04-27 18:49 | 33.47685 | 131.73703 | 24 ft | 133 kts | 0° |
| 2026-04-27 18:50 | 33.48772 | 131.73709 | 110 ft | 172 kts | 0° |
| 2026-04-27 18:50 | 33.49972 | 131.73733 | 738 ft | 175 kts | 5° |
| 2026-04-27 18:50 | 33.51078 | 131.74309 | 1348 ft | 179 kts | 50° |
| 2026-04-27 18:50 | 33.51498 | 131.75702 | 1839 ft | 190 kts | 95° |
| 2026-04-27 18:51 | 33.50992 | 131.77221 | 2130 ft | 208 kts | 124° |
| 2026-04-27 18:51 | 33.50094 | 131.78715 | 2463 ft | 232 kts | 129° |
| 2026-04-27 18:51 | 33.49030 | 131.80280 | 2934 ft | 253 kts | 131° |
| 2026-04-27 18:51 | 33.47910 | 131.81972 | 3659 ft | 262 kts | 130° |
| 2026-04-27 18:52 | 33.46799 | 131.83751 | 4450 ft | 270 kts | 128° |
| 2026-04-27 18:52 | 33.45688 | 131.85601 | 5238 ft | 277 kts | 128° |
| 2026-04-27 18:52 | 33.44568 | 131.87510 | 6048 ft | 283 kts | 127° |
| 2026-04-27 18:53 | 33.42288 | 131.91462 | 7583 ft | 294 kts | 127° |
| 2026-04-27 18:53 | 33.41116 | 131.93498 | 8334 ft | 300 kts | 127° |
| 2026-04-27 18:53 | 33.39918 | 131.95573 | 9083 ft | 306 kts | 127° |
| 2026-04-27 18:53 | 33.38694 | 131.97685 | 9820 ft | 312 kts | 128° |
| 2026-04-27 18:54 | 33.37438 | 131.99849 | 10359 ft | 325 kts | 128° |
| 2026-04-27 18:54 | 33.36099 | 132.02148 | 10567 ft | 349 kts | 128° |
| 2026-04-27 18:54 | 33.34666 | 132.04606 | 10779 ft | 371 kts | 128° |
| 2026-04-27 18:54 | 33.33165 | 132.07186 | 11236 ft | 382 kts | 128° |
| 2026-04-27 18:55 | 33.31744 | 132.09903 | 11862 ft | 391 kts | 119° |
| 2026-04-27 18:55 | 33.30753 | 132.12962 | 12513 ft | 399 kts | 107° |
| 2026-04-27 18:55 | 33.30289 | 132.16255 | 13156 ft | 406 kts | 94° |
| 2026-04-27 18:55 | 33.30394 | 132.19640 | 13783 ft | 411 kts | 81° |
| 2026-04-27 18:56 | 33.30940 | 132.23016 | 14356 ft | 415 kts | 78° |
| 2026-04-27 18:56 | 33.31512 | 132.26415 | 14960 ft | 419 kts | 78° |
| 2026-04-27 18:56 | 33.32079 | 132.29847 | 15554 ft | 422 kts | 78° |
| 2026-04-27 18:56 | 33.32647 | 132.33306 | 16146 ft | 425 kts | 78° |
| 2026-04-27 18:57 | 33.33218 | 132.36788 | 16734 ft | 429 kts | 78° |
| 2026-04-27 18:57 | 33.33796 | 132.40300 | 17343 ft | 432 kts | 78° |
| 2026-04-27 18:57 | 33.34380 | 132.43836 | 17947 ft | 435 kts | 78° |
| 2026-04-27 18:57 | 33.34966 | 132.47400 | 18507 ft | 439 kts | 78° |
| 2026-04-27 18:58 | 33.35557 | 132.50995 | 18950 ft | 444 kts | 78° |
| 2026-04-27 18:58 | 33.35956 | 132.53403 | 19242 ft | 448 kts | 78° |
| 2026-04-27 18:58 | 33.36764 | 132.58283 | 19845 ft | 455 kts | 78° |
| 2026-04-27 18:58 | 33.37383 | 132.62023 | 20243 ft | 461 kts | 78° |
| 2026-04-27 18:59 | 33.38009 | 132.65802 | 20674 ft | 465 kts | 78° |
| 2026-04-27 18:59 | 33.38643 | 132.69627 | 21102 ft | 471 kts | 78° |
| 2026-04-27 18:59 | 33.39280 | 132.73502 | 21512 ft | 475 kts | 78° |
| 2026-04-27 18:59 | 33.39921 | 132.77409 | 21908 ft | 481 kts | 78° |
| 2026-04-27 19:00 | 33.40567 | 132.81359 | 22310 ft | 486 kts | 78° |
| 2026-04-27 19:00 | 33.41216 | 132.85348 | 22728 ft | 490 kts | 78° |
| 2026-04-27 19:00 | 33.41867 | 132.89370 | 23107 ft | 494 kts | 78° |
| 2026-04-27 19:00 | 33.42515 | 132.93383 | 23460 ft | 498 kts | 78° |
| 2026-04-27 19:01 | 33.43178 | 132.97481 | 23773 ft | 503 kts | 78° |
| 2026-04-27 19:01 | 33.43848 | 133.01608 | 24088 ft | 506 kts | 78° |
| 2026-04-27 19:01 | 33.44522 | 133.05762 | 24421 ft | 509 kts | 78° |
| 2026-04-27 19:01 | 33.45198 | 133.09941 | 24746 ft | 512 kts | 78° |
| 2026-04-27 19:02 | 33.45876 | 133.14143 | 25086 ft | 514 kts | 78° |
| 2026-04-27 19:02 | 33.46546 | 133.18310 | 25392 ft | 517 kts | 78° |
| 2026-04-27 19:02 | 33.47216 | 133.22549 | 25688 ft | 519 kts | 78° |
| 2026-04-27 19:02 | 33.47876 | 133.26802 | 25974 ft | 521 kts | 78° |
| 2026-04-27 19:03 | 33.48532 | 133.31079 | 26244 ft | 524 kts | 78° |
| 2026-04-27 19:03 | 33.49191 | 133.35391 | 26551 ft | 526 kts | 78° |
| 2026-04-27 19:03 | 33.49856 | 133.39720 | 26835 ft | 529 kts | 78° |
| 2026-04-27 19:03 | 33.50297 | 133.42592 | 27012 ft | 530 kts | 78° |
| 2026-04-27 19:04 | 33.51191 | 133.48419 | 27363 ft | 534 kts | 78° |
| 2026-04-27 19:04 | 33.51867 | 133.52816 | 27624 ft | 536 kts | 78° |
| 2026-04-27 19:04 | 33.52544 | 133.57235 | 27884 ft | 538 kts | 78° |
| 2026-04-27 19:04 | 33.53219 | 133.61656 | 28141 ft | 541 kts | 78° |
| 2026-04-27 19:05 | 33.53838 | 133.66058 | 28382 ft | 543 kts | 83° |
| 2026-04-27 19:05 | 33.54051 | 133.70583 | 28614 ft | 545 kts | 91° |
| 2026-04-27 19:05 | 33.53873 | 133.75131 | 28838 ft | 547 kts | 94° |
| 2026-04-27 19:05 | 33.53666 | 133.79690 | 29072 ft | 549 kts | 94° |
| 2026-04-27 19:06 | 33.53466 | 133.84274 | 29390 ft | 548 kts | 94° |
| 2026-04-27 19:06 | 33.53270 | 133.88854 | 29703 ft | 548 kts | 94° |
| 2026-04-27 19:06 | 33.53075 | 133.93425 | 29995 ft | 548 kts | 94° |
| 2026-04-27 19:06 | 33.52877 | 133.97989 | 30274 ft | 548 kts | 94° |
| 2026-04-27 19:07 | 33.52677 | 134.02493 | 30556 ft | 548 kts | 94° |
| 2026-04-27 19:07 | 33.52470 | 134.07050 | 30846 ft | 548 kts | 94° |
| 2026-04-27 19:07 | 33.52258 | 134.11610 | 31131 ft | 547 kts | 94° |
| 2026-04-27 19:07 | 33.52042 | 134.16166 | 31404 ft | 547 kts | 94° |
| 2026-04-27 19:08 | 33.51827 | 134.20713 | 31666 ft | 547 kts | 94° |
| 2026-04-27 19:08 | 33.51610 | 134.25264 | 31914 ft | 547 kts | 94° |
| 2026-04-27 19:08 | 33.51393 | 134.29815 | 32168 ft | 547 kts | 94° |
| 2026-04-27 19:08 | 33.51176 | 134.34372 | 32421 ft | 547 kts | 94° |
| 2026-04-27 19:09 | 33.50960 | 134.38924 | 32687 ft | 547 kts | 94° |
| 2026-04-27 19:09 | 33.50756 | 134.43482 | 32948 ft | 547 kts | 94° |
| 2026-04-27 19:09 | 33.50563 | 134.48043 | 33205 ft | 547 kts | 94° |
| 2026-04-27 19:09 | 33.50375 | 134.52602 | 33463 ft | 547 kts | 94° |
| 2026-04-27 19:10 | 33.50187 | 134.57159 | 33721 ft | 547 kts | 94° |
| 2026-04-27 19:10 | 33.49997 | 134.61660 | 33967 ft | 547 kts | 94° |
| 2026-04-27 19:10 | 33.49800 | 134.66213 | 34208 ft | 547 kts | 94° |
| 2026-04-27 19:10 | 33.49664 | 134.69284 | 34375 ft | 546 kts | 94° |
| 2026-04-27 19:11 | 33.49392 | 134.75299 | 34706 ft | 545 kts | 94° |
| 2026-04-27 19:11 | 33.49186 | 134.79832 | 34952 ft | 544 kts | 94° |
| 2026-04-27 19:11 | 33.48980 | 134.84358 | 35184 ft | 543 kts | 94° |
| 2026-04-27 19:11 | 33.48775 | 134.88886 | 35409 ft | 543 kts | 94° |
| 2026-04-27 19:12 | 33.48570 | 134.93398 | 35620 ft | 542 kts | 94° |
| 2026-04-27 19:12 | 33.48363 | 134.97927 | 35832 ft | 542 kts | 94° |
| 2026-04-27 19:12 | 33.48159 | 135.02388 | 35960 ft | 542 kts | 94° |
| 2026-04-27 19:13 | 33.47760 | 135.11402 | 35985 ft | 541 kts | 94° |
| 2026-04-27 19:13 | 33.47360 | 135.20412 | 35983 ft | 541 kts | 94° |
| 2026-04-27 19:14 | 33.46950 | 135.29419 | 35984 ft | 541 kts | 94° |
| 2026-04-27 19:14 | 33.46539 | 135.38411 | 35984 ft | 541 kts | 94° |
| 2026-04-27 19:15 | 33.46166 | 135.47375 | 35987 ft | 541 kts | 94° |
| 2026-04-27 19:15 | 33.45798 | 135.56351 | 35992 ft | 541 kts | 94° |
| 2026-04-27 19:16 | 33.45414 | 135.65364 | 35991 ft | 540 kts | 94° |
| 2026-04-27 19:16 | 33.45007 | 135.74358 | 35998 ft | 540 kts | 93° |
| 2026-04-27 19:17 | 33.45530 | 135.83237 | 35999 ft | 537 kts | 76° |
| 2026-04-27 19:17 | 33.47267 | 135.91952 | 35998 ft | 537 kts | 74° |
| 2026-04-27 19:18 | 33.48969 | 136.00637 | 35995 ft | 537 kts | 75° |
| 2026-04-27 19:18 | 33.50661 | 136.09382 | 36002 ft | 538 kts | 75° |
| 2026-04-27 19:19 | 33.52354 | 136.18119 | 36000 ft | 538 kts | 75° |
| 2026-04-27 19:19 | 33.54046 | 136.26853 | 35993 ft | 538 kts | 75° |
| 2026-04-27 19:20 | 33.55733 | 136.35602 | 35995 ft | 538 kts | 75° |
| 2026-04-27 19:20 | 33.57400 | 136.44291 | 35993 ft | 538 kts | 75° |
| 2026-04-27 19:21 | 33.58797 | 136.51574 | 35994 ft | 538 kts | 75° |
| 2026-04-27 19:21 | 33.60479 | 136.60335 | 36001 ft | 538 kts | 75° |
| 2026-04-27 19:22 | 33.62146 | 136.69102 | 36004 ft | 538 kts | 75° |
| 2026-04-27 19:22 | 33.63796 | 136.77872 | 36003 ft | 538 kts | 75° |
| 2026-04-27 19:23 | 33.65446 | 136.86614 | 36005 ft | 539 kts | 75° |
| 2026-04-27 19:23 | 33.67105 | 136.95401 | 36003 ft | 539 kts | 75° |
| 2026-04-27 19:24 | 33.68741 | 137.04143 | 36006 ft | 539 kts | 75° |
| 2026-04-27 19:24 | 33.70110 | 137.13020 | 36008 ft | 542 kts | 85° |
| 2026-04-27 19:25 | 33.70398 | 137.22052 | 36008 ft | 543 kts | 88° |
| 2026-04-27 19:25 | 33.70669 | 137.31138 | 36003 ft | 543 kts | 87° |
| 2026-04-27 19:26 | 33.70947 | 137.40200 | 36006 ft | 543 kts | 87° |
| 2026-04-27 19:26 | 33.71215 | 137.49232 | 36006 ft | 544 kts | 88° |
| 2026-04-27 19:27 | 33.71466 | 137.58339 | 36007 ft | 544 kts | 88° |
| 2026-04-27 19:27 | 33.71713 | 137.67371 | 36003 ft | 544 kts | 88° |
| 2026-04-27 19:28 | 33.71953 | 137.76475 | 36001 ft | 544 kts | 88° |
| 2026-04-27 19:28 | 33.72188 | 137.85576 | 36003 ft | 544 kts | 88° |
| 2026-04-27 19:29 | 33.72410 | 137.94604 | 35998 ft | 543 kts | 88° |
| 2026-04-27 19:29 | 33.72631 | 138.03685 | 35996 ft | 544 kts | 88° |
| 2026-04-27 19:30 | 33.72849 | 138.12787 | 35995 ft | 543 kts | 88° |
| 2026-04-27 19:30 | 33.73055 | 138.21863 | 35996 ft | 543 kts | 88° |
| 2026-04-27 19:31 | 33.73258 | 138.30889 | 35994 ft | 543 kts | 88° |
| 2026-04-27 19:31 | 33.73455 | 138.39949 | 35994 ft | 543 kts | 88° |
| 2026-04-27 19:32 | 33.73640 | 138.49042 | 35991 ft | 543 kts | 88° |
| 2026-04-27 19:32 | 33.73823 | 138.58102 | 35997 ft | 543 kts | 88° |
| 2026-04-27 19:33 | 33.74003 | 138.67186 | 35996 ft | 543 kts | 88° |
| 2026-04-27 19:33 | 33.74176 | 138.76198 | 35995 ft | 543 kts | 88° |
| 2026-04-27 19:34 | 33.74506 | 138.85267 | 35994 ft | 541 kts | 80° |
| 2026-04-27 19:34 | 33.76450 | 138.93933 | 35997 ft | 533 kts | 62° |
| 2026-04-27 19:35 | 33.79976 | 139.01634 | 35997 ft | 526 kts | 52° |
| 2026-04-27 19:35 | 33.83769 | 139.09174 | 35998 ft | 527 kts | 52° |
| 2026-04-27 19:36 | 33.87550 | 139.16740 | 35998 ft | 527 kts | 52° |
| 2026-04-27 19:36 | 33.91309 | 139.24281 | 35998 ft | 527 kts | 52° |
| 2026-04-27 19:37 | 33.95087 | 139.31866 | 36001 ft | 528 kts | 52° |
| 2026-04-27 19:37 | 33.98854 | 139.39458 | 35998 ft | 528 kts | 52° |
| 2026-04-27 19:38 | 34.02618 | 139.47058 | 35997 ft | 528 kts | 52° |
| 2026-04-27 19:38 | 34.06392 | 139.54658 | 36005 ft | 527 kts | 50° |
| 2026-04-27 19:39 | 34.10767 | 139.61614 | 35996 ft | 519 kts | 43° |
| 2026-04-27 19:39 | 34.15263 | 139.68371 | 35997 ft | 519 kts | 43° |
| 2026-04-27 19:40 | 34.19776 | 139.75183 | 35995 ft | 520 kts | 43° |
| 2026-04-27 19:40 | 34.24281 | 139.82017 | 35995 ft | 520 kts | 43° |
| 2026-04-27 19:41 | 34.28797 | 139.88854 | 35998 ft | 520 kts | 43° |
| 2026-04-27 19:41 | 34.33316 | 139.95702 | 36000 ft | 521 kts | 43° |
| 2026-04-27 19:42 | 34.37828 | 140.02558 | 35999 ft | 521 kts | 43° |
| 2026-04-27 19:42 | 34.42343 | 140.09439 | 36000 ft | 521 kts | 43° |
| 2026-04-27 19:43 | 34.46766 | 140.16434 | 35763 ft | 528 kts | 49° |
| 2026-04-27 19:43 | 34.48773 | 140.20217 | 34640 ft | 539 kts | 50° |
| 2026-04-27 19:43 | 34.50779 | 140.24090 | 33533 ft | 545 kts | 51° |
| 2026-04-27 19:43 | 34.52782 | 140.28016 | 32414 ft | 549 kts | 52° |
| 2026-04-27 19:44 | 34.54792 | 140.31979 | 31303 ft | 552 kts | 52° |
| 2026-04-27 19:44 | 34.56807 | 140.35949 | 30217 ft | 554 kts | 52° |
| 2026-04-27 19:44 | 34.58839 | 140.39937 | 28925 ft | 556 kts | 52° |
| 2026-04-27 19:44 | 34.60885 | 140.43931 | 27731 ft | 556 kts | 52° |
| 2026-04-27 19:45 | 34.62924 | 140.47893 | 26706 ft | 552 kts | 53° |
| 2026-04-27 19:45 | 34.64958 | 140.51839 | 25743 ft | 549 kts | 53° |
| 2026-04-27 19:45 | 34.66943 | 140.55701 | 25027 ft | 541 kts | 53° |
| 2026-04-27 19:45 | 34.69013 | 140.59468 | 24268 ft | 530 kts | 46° |
| 2026-04-27 19:46 | 34.71490 | 140.62688 | 23552 ft | 514 kts | 34° |
| 2026-04-27 19:46 | 34.74305 | 140.65249 | 22789 ft | 496 kts | 24° |
| 2026-04-27 19:46 | 34.77315 | 140.67129 | 22167 ft | 477 kts | 13° |
| 2026-04-27 19:46 | 34.80409 | 140.68344 | 21555 ft | 458 kts | 4° |
| 2026-04-27 19:47 | 34.83495 | 140.68930 | 20973 ft | 442 kts | 356° |
| 2026-04-27 19:47 | 34.86534 | 140.69295 | 20444 ft | 436 kts | 356° |
| 2026-04-27 19:47 | 34.89530 | 140.69664 | 19915 ft | 430 kts | 356° |
| 2026-04-27 19:47 | 34.92493 | 140.70034 | 19417 ft | 425 kts | 356° |
| 2026-04-27 19:48 | 34.95421 | 140.70401 | 18926 ft | 420 kts | 356° |
| 2026-04-27 19:48 | 34.98317 | 140.70765 | 18459 ft | 416 kts | 356° |
| 2026-04-27 19:48 | 35.01181 | 140.71121 | 17947 ft | 412 kts | 357° |
| 2026-04-27 19:48 | 35.04014 | 140.71473 | 17483 ft | 406 kts | 357° |
| 2026-04-27 19:49 | 35.06806 | 140.71823 | 17024 ft | 401 kts | 357° |
| 2026-04-27 19:49 | 35.09572 | 140.72239 | 16520 ft | 399 kts | 0° |
| 2026-04-27 19:49 | 35.12305 | 140.72793 | 16034 ft | 397 kts | 2° |
| 2026-04-27 19:49 | 35.15014 | 140.73431 | 15534 ft | 395 kts | 4° |
| 2026-04-27 19:50 | 35.17694 | 140.74099 | 15031 ft | 391 kts | 4° |
| 2026-04-27 19:50 | 35.20353 | 140.74761 | 14513 ft | 388 kts | 4° |
| 2026-04-27 19:50 | 35.22993 | 140.75403 | 13992 ft | 385 kts | 4° |
| 2026-04-27 19:50 | 35.25583 | 140.76012 | 13425 ft | 383 kts | 4° |
| 2026-04-27 19:51 | 35.28183 | 140.76610 | 12908 ft | 377 kts | 5° |
| 2026-04-27 19:51 | 35.30747 | 140.77193 | 12380 ft | 373 kts | 5° |
| 2026-04-27 19:51 | 35.33283 | 140.77766 | 11835 ft | 369 kts | 5° |
| 2026-04-27 19:51 | 35.35794 | 140.78331 | 11295 ft | 365 kts | 6° |
| 2026-04-27 19:52 | 35.38264 | 140.78892 | 11018 ft | 354 kts | 6° |
| 2026-04-27 19:52 | 35.39876 | 140.79263 | 10965 ft | 343 kts | 6° |